LEBBLEXJ

Guest
Details From LEBB - Bilbao
To LEXJ - Santander
Flight Number -
Tags Generated
Created
Modified
Stats Distance 40 nm / 74 km
Max Altitude 0 ft / 0 m
Waypoints 2
Social Downloads 1
Likes 0
Share VATSIM

Download

Looking for another format? Having issues loading an existing format? Contact us
Advertisement - Login to hide

Notes

Generated

Route

LEBB LEXJ

ID Type Via Altitude Latitude Longitude Leg Dist Tot Dist Heading (true) Name
O LEBB APT - 0 ft / 0 m 43.30335˚ -2.93703˚ - 0 nm - -
O LEXJ APT - 0 ft / 0 m 43.43078˚ -3.83392˚ 39 nm 39 nm 281° / 281° -

Altitude Profile

Advertisement - Login to hide

LEBB

Details ICAO LEBB (BIO)
Name Bilbao
Region Spain
Timezone Europe/Madrid (UTC+1.0)
Stats Elevation 137 ft / 42 m (AMSL)
Location 43.301692° -2.917664°
Runways 2
Magnetic Variation 0.630° W

METAR

LEBB 121200Z 23010KT 190V280 9999 FEW025 09/05 Q1018 TEMPO RA

Decode

TAF

TAF LEBB 121100Z 1212/1312 20009KT 9999 SCT020 SCT050 TX11/1214Z TN04/1304Z PROB40 TEMPO 1212/1215 RA SHRA SCT030TCU TEMPO 1309/1312 20015G25KT

Decode

Departure Runways

ID Width Length Bearing (true) Bearing (mag) Surface Threshold Offset Overrun Length
10 148 ft / 45 m 6,569 ft / 2,002 m 96.66° 97.29° Asphalt 20 ft / 6 m 184 ft / 56 m
12 148 ft / 45 m 8,539 ft / 2,603 m 116.73° 117.36° Asphalt 20 ft / 6 m 197 ft / 60 m
28 148 ft / 45 m 6,569 ft / 2,002 m 276.68° 277.31° Asphalt 23 ft / 7 m 0 ft / 0 m
30 148 ft / 45 m 8,539 ft / 2,603 m 296.75° 297.38° Asphalt 1,509 ft / 460 m 171 ft / 52 m

LEXJ

Details ICAO LEXJ (SDR)
Name Santander
Region Spain
Timezone Europe/Madrid (UTC+1.0)
Stats Elevation 16 ft / 5 m (AMSL)
Location 43.427188° -3.820470°
Runways 1
Magnetic Variation 0.914° W

METAR

LEXJ 121200Z 18006KT 7000 3000NW RA SCT016 BKN035 07/06 Q1018

Decode

TAF

TAF TAF LEXJ 120800Z 1209/1309 21008KT 9999 SCT030 TX10/1214Z TN06/1305Z TEMPO 1209/1214 3000 RA SHRA BKN035TCU TEMPO 1212/1218 27010KT

Decode

Destination Runways

ID Width Length Bearing (true) Bearing (mag) Surface Threshold Offset Overrun Length
11 148 ft / 45 m 7,597 ft / 2,316 m 110.20° 111.11° Asphalt 0 ft / 0 m 98 ft / 30 m
29 148 ft / 45 m 7,597 ft / 2,316 m 290.22° 291.13° Asphalt 0 ft / 0 m 0 ft / 0 m

Approach Navaids

Runway Type Ident Frequency Range Bearing (true) Bearing (mag) Slope Elevation
29 Localiser STA 110.90 MHz 18 nm / 33 km 290.19° 291.10° - 16 ft / 5 m (AMSL)
29 Glidescope STA 110.90 MHz 10 nm / 19 km 290.21° 291.12° 3.00° 16 ft / 5 m (AMSL)
29 DME STA 110.90 MHz 18 nm / 33 km - - - 26 ft / 8 m (AMSL)

Popular Alternatives